Wilson Dublin — V2FV4 — position and weather

sailwx.info

Track history (hours):
 
Tides and Currents Weather Stations Pressure Air Temp Water Temp Dewpoint Dewpoint Depression Visibility Wind Speed Wind Dir Waves Ship Positions

Wilson Dublin

Last reported at 2017-Sep-26 05:31 UTC. Time now 2017-Sep-26 16:27 UTC.
Position N 57°34' E 010°43'.

Length 88 m; draft 5.7 m.

Type: Cargo ship. MMSI: 305812000.

Date/timePositionNaut miles runAvg speedWind from/ knotsBaromVisibWave heightAir tempDewpointWater temp
2017-Sep-26 05:31N 57°34' E 010°43'1 8.0
2017-Sep-26 05:27N 57°35' E 010°43'7 8.3
2017-Sep-26 04:39N 57°41' E 010°44'5 8.5
2017-Sep-26 04:04N 57°46' E 010°45'1 7.4
2017-Sep-26 03:53N 57°47' E 010°43'101 7.4
2017-Sep-25 14:22N 57°42' E 007°35'2 6.7
2017-Sep-25 14:00N 57°42' E 007°31'3 6.7
2017-Sep-25 13:30N 57°42' E 007°25'4 7.1
2017-Sep-25 13:00N 57°43' E 007°18'3 7.1
2017-Sep-25 12:31N 57°43' E 007°11'4 7.3
2017-Sep-25 12:00N 57°43' E 007°05'162 6.9
2017-Sep-24 12:29N 60°05' E 004°31'5 9.9
2017-Sep-24 12:00N 60°06' E 004°41'5 9.8
2017-Sep-24 11:30N 60°07' E 004°50'5 9.6
2017-Sep-24 11:00N 60°08' E 004°60'5 9.4
2017-Sep-24 10:30N 60°10' E 005°08'4 8.7
2017-Sep-24 10:00N 60°15' E 005°09'5 9.3
2017-Sep-24 09:31N 60°19' E 005°09'4 7.2
2017-Sep-24 09:00N 60°23' E 005°10'4 7.7
2017-Sep-24 08:31N 60°25' E 005°16'510.0
2017-Sep-24 08:00N 60°30' E 005°15'5 9.9
2017-Sep-24 07:30N 60°34' E 005°22'510.2
2017-Sep-24 07:00N 60°37' E 005°30'4 8.3
2017-Sep-24 06:30N 60°41' E 005°34'1 1.8
2017-Sep-24 05:47N 60°42' E 005°33'0 0.0
2017-Sep-24 05:23N 60°42' E 005°33'0 0.0
2017-Sep-24 04:59N 60°42' E 005°33'0 0.0
2017-Sep-24 04:29N 60°42' E 005°33'0 0.0
2017-Sep-24 02:35N 60°42' E 005°33'0 0.0
2017-Sep-24 02:17N 60°42' E 005°33'0 0.1
2017-Sep-24 01:59N 60°42' E 005°33'0 0.0
2017-Sep-24 01:29N 60°42' E 005°33'0 0.0
2017-Sep-24 00:56N 60°42' E 005°33'0 0.0
2017-Sep-24 00:26N 60°42' E 005°33'0 0.0
2017-Sep-23 23:56N 60°42' E 005°33'0 0.0
2017-Sep-23 23:29N 60°42' E 005°33'0 0.0
2017-Sep-23 22:59N 60°42' E 005°33'0 0.0
2017-Sep-23 22:11N 60°42' E 005°33'0 0.1
2017-Sep-23 21:56N 60°42' E 005°33'0 0.0
2017-Sep-23 21:14N 60°42' E 005°33'0 0.0
2017-Sep-23 20:59N 60°42' E 005°33'0 0.0
2017-Sep-23 20:26N 60°42' E 005°33'0 0.0
2017-Sep-23 19:56N 60°42' E 005°33'36 0.9
2017-Sep-22 02:01N 61°07' E 006°29'4 8.4
2017-Sep-22 01:30N 61°06' E 006°20'4 8.6
2017-Sep-22 01:00N 61°07' E 006°11'4 8.2
2017-Sep-22 00:30N 61°08' E 006°03'4 8.0
2017-Sep-22 00:00N 61°08' E 005°54'4 8.0
2017-Sep-21 23:31N 61°08' E 005°46'4 8.1
2017-Sep-21 23:00N 61°06' E 005°38'4 8.2
2017-Sep-21 22:30N 61°05' E 005°30'4 7.9
2017-Sep-21 22:00N 61°04' E 005°22'4 9.2
2017-Sep-21 21:31N 61°05' E 005°14'5 8.8
2017-Sep-21 21:00N 61°05' E 005°04'510.1
2017-Sep-21 20:30N 61°02' E 004°55'510.8
2017-Sep-21 20:00N 60°59' E 004°47'510.2
2017-Sep-21 19:30N 60°54' E 004°46'4 8.3
2017-Sep-21 19:00N 60°51' E 004°52'5 9.3
2017-Sep-21 18:30N 60°49' E 005°01'0 0.4
2017-Sep-21 18:00N 60°49' E 005°01'0 0.0
2017-Sep-21 17:31N 60°49' E 005°01'0 0.0
2017-Sep-21 17:00N 60°49' E 005°01'0 0.0
2017-Sep-21 16:30N 60°49' E 005°01'0 0.0
2017-Sep-21 16:01N 60°49' E 005°01'0 0.0
2017-Sep-21 15:30N 60°49' E 005°01'0 0.0
2017-Sep-21 15:00N 60°49' E 005°01'0 0.0
2017-Sep-21 14:30N 60°49' E 005°01'0 0.0
2017-Sep-21 14:00N 60°49' E 005°01'0 0.0
2017-Sep-21 13:30N 60°49' E 005°01'0 0.0
2017-Sep-21 13:00N 60°49' E 005°01'0 0.0
2017-Sep-21 12:30N 60°49' E 005°01'0 0.0
2017-Sep-21 12:00N 60°49' E 005°01'0 0.0
2017-Sep-21 11:30N 60°49' E 005°01'0 0.0
2017-Sep-21 11:01N 60°49' E 005°01'0 0.0
2017-Sep-21 10:30N 60°49' E 005°01'0 0.0
2017-Sep-21 10:00N 60°49' E 005°01'0 0.0
2017-Sep-21 09:30N 60°49' E 005°01'0 0.0
2017-Sep-21 09:00N 60°49' E 005°01'0 0.0
2017-Sep-21 08:30N 60°49' E 005°01'0 0.0
2017-Sep-21 08:01N 60°49' E 005°01'0 0.0
2017-Sep-21 07:30N 60°49' E 005°01'0 0.0
2017-Sep-21 07:00N 60°49' E 005°01'0 0.0
2017-Sep-21 06:30N 60°49' E 005°01'0 0.0
2017-Sep-21 06:00N 60°49' E 005°01'0 0.0
2017-Sep-21 05:30N 60°49' E 005°01'0 0.0
2017-Sep-21 05:00N 60°49' E 005°01'0 0.0
2017-Sep-21 04:31N 60°49' E 005°01'0 0.0
2017-Sep-21 04:01N 60°49' E 005°01'0 0.0
2017-Sep-21 03:30N 60°49' E 005°01'0 0.0
2017-Sep-21 03:00N 60°49' E 005°01'0 0.0
2017-Sep-21 02:29N 60°49' E 005°01'0 0.0
2017-Sep-21 02:00N 60°49' E 005°01'0 0.0
2017-Sep-21 01:30N 60°49' E 005°01'1 1.5
2017-Sep-21 01:00N 60°49' E 004°60'4 8.9
2017-Sep-21 00:31N 60°51' E 004°52'4 8.4
2017-Sep-21 00:00N 60°48' E 004°45'4 7.8
2017-Sep-20 23:30N 60°44' E 004°42'5 9.7
2017-Sep-20 23:00N 60°45' E 004°33'4 7.3
2017-Sep-20 22:30N 60°45' E 004°25'269 8.5
2017-Sep-19 14:50N 57°29' W 001°36'411.0
2017-Sep-19 14:28N 57°28' W 001°43'3 6.0
2017-Sep-19 14:00N 57°30' W 001°47'0 0.0
2017-Sep-19 13:31N 57°30' W 001°47'0 0.0
2017-Sep-19 13:00N 57°30' W 001°47'0 0.0
2017-Sep-19 12:30N 57°30' W 001°47'0 0.0
2017-Sep-19 12:01N 57°30' W 001°47'0 0.0
2017-Sep-19 11:31N 57°30' W 001°47'0 0.0
2017-Sep-19 11:01N 57°30' W 001°47'0 0.0
2017-Sep-19 10:31N 57°30' W 001°47'0 0.0
2017-Sep-19 10:01N 57°30' W 001°47'0 0.0
2017-Sep-19 09:31N 57°30' W 001°47'0 0.0
2017-Sep-19 09:01N 57°30' W 001°47'0 0.0
2017-Sep-19 08:30N 57°30' W 001°47'0 0.0
2017-Sep-19 08:01N 57°30' W 001°47'0 0.0
2017-Sep-19 07:31N 57°30' W 001°47'0 0.0
2017-Sep-19 07:00N 57°30' W 001°47'0 0.0
2017-Sep-19 06:30N 57°30' W 001°47'0 0.0
2017-Sep-19 06:01N 57°30' W 001°47'0 0.0
2017-Sep-19 05:30N 57°30' W 001°47'0 0.0
2017-Sep-19 05:00N 57°30' W 001°47'0 0.0
2017-Sep-19 04:31N 57°30' W 001°47'0 0.0
2017-Sep-19 04:00N 57°30' W 001°47'0 0.0
2017-Sep-19 03:31N 57°30' W 001°47'0 0.0
2017-Sep-19 03:01N 57°30' W 001°47'0 0.0
2017-Sep-19 02:30N 57°30' W 001°47'0 0.0
2017-Sep-19 02:01N 57°30' W 001°47'0 0.0
2017-Sep-19 01:30N 57°30' W 001°47'0 0.0
2017-Sep-19 01:00N 57°30' W 001°47'0 0.0
2017-Sep-19 00:31N 57°30' W 001°47'0 0.0
2017-Sep-19 00:00N 57°30' W 001°47'0 0.0
2017-Sep-18 23:30N 57°30' W 001°47'0 0.0
2017-Sep-18 23:01N 57°30' W 001°47'0 0.0
2017-Sep-18 22:30N 57°30' W 001°47'0 0.0
2017-Sep-18 22:01N 57°30' W 001°47'0 0.0
2017-Sep-18 21:30N 57°30' W 001°47'0 0.0
2017-Sep-18 21:01N 57°30' W 001°47'0 0.0
2017-Sep-18 20:30N 57°30' W 001°47'0 0.0
2017-Sep-18 20:00N 57°30' W 001°47'0 0.0
2017-Sep-18 19:31N 57°30' W 001°47'0 0.0
2017-Sep-18 19:00N 57°30' W 001°47'0 0.0
2017-Sep-18 18:31N 57°30' W 001°47'0 0.0
2017-Sep-18 18:00N 57°30' W 001°47'0 0.0
2017-Sep-18 17:30N 57°30' W 001°47'0 0.0
2017-Sep-18 17:00N 57°30' W 001°47'0 0.0
2017-Sep-18 16:30N 57°30' W 001°47'0 0.0
2017-Sep-18 16:01N 57°30' W 001°47'0 0.0
2017-Sep-18 15:30N 57°30' W 001°47'0 0.0
2017-Sep-18 15:00N 57°30' W 001°47'0 0.0
2017-Sep-18 14:31N 57°30' W 001°47'0 0.0
2017-Sep-18 14:00N 57°30' W 001°47'0 0.0
2017-Sep-18 13:31N 57°30' W 001°47'0 0.0
2017-Sep-18 13:00N 57°30' W 001°47'0 0.0
2017-Sep-18 12:31N 57°30' W 001°47'0 0.0
2017-Sep-18 12:00N 57°30' W 001°47'0 0.0
2017-Sep-18 11:31N 57°30' W 001°47'0 0.0
2017-Sep-18 11:01N 57°30' W 001°47'0 0.0
2017-Sep-18 10:30N 57°30' W 001°47'0 0.0
2017-Sep-18 10:00N 57°30' W 001°47'0 0.0
2017-Sep-18 09:31N 57°30' W 001°47'0 0.0
2017-Sep-18 09:01N 57°30' W 001°47'0 0.0
2017-Sep-18 08:30N 57°30' W 001°47'0 0.0
2017-Sep-18 08:01N 57°30' W 001°47'0 0.0
2017-Sep-18 07:30N 57°30' W 001°47'0 0.0
2017-Sep-18 07:00N 57°30' W 001°47'0 0.0
2017-Sep-18 06:30N 57°30' W 001°47'0 0.0
2017-Sep-18 06:00N 57°30' W 001°47'0 0.0
2017-Sep-18 05:31N 57°30' W 001°47'0 0.1
2017-Sep-18 05:00N 57°30' W 001°47'2 4.5
2017-Sep-18 04:30N 57°29' W 001°44'16 9.0
2017-Sep-18 02:43N 57°13' W 001°47'2 9.3
2017-Sep-18 02:28N 57°10' W 001°48'6 8.7
2017-Sep-18 01:48N 57°04' W 001°49'2 8.0
2017-Sep-18 01:30N 57°02' W 001°50'155 7.2
2017-Sep-17 03:52N 54°37' W 000°09'3 7.0
2017-Sep-17 03:30N 54°35' W 000°07'3 7.0
2017-Sep-17 03:01N 54°32' W 000°03'3 6.6
2017-Sep-17 02:31N 54°30' W 000°00'3 6.4
2017-Sep-17 02:01N 54°27' E 000°03'3 6.4
2017-Sep-17 01:31N 54°24' E 000°06'3 6.2
2017-Sep-17 01:00N 54°22' E 000°09'3 6.3
2017-Sep-17 00:30N 54°19' E 000°12'4 6.3
2017-Sep-16 23:49N 54°15' E 000°16'2 6.4
2017-Sep-16 23:30N 54°13' E 000°17'3 6.8
2017-Sep-16 23:00N 54°10' E 000°19'69 7.3
2017-Sep-16 13:34N 53°10' E 001°15'1 8.7
2017-Sep-16 13:25N 53°09' E 001°17'4 9.2
2017-Sep-16 13:00N 53°06' E 001°21'710.1
2017-Sep-16 12:21N 53°01' E 001°29'410.8
2017-Sep-16 12:00N 52°59' E 001°33'611.3
2017-Sep-16 11:30N 52°55' E 001°39'711.8
2017-Sep-16 10:57N 52°50' E 001°47'  
Track history (hours):
 
Tides and Currents Weather Stations Pressure Air Temp Water Temp Dewpoint Dewpoint Depression Visibility Wind Speed Wind Dir Waves Ship Positions

Wilson Dublin

Last reported at 2017-Sep-26 05:31 UTC. Time now 2017-Sep-26 16:27 UTC.
Position N 57°34' E 010°43'.

Length 88 m; draft 5.7 m.

Type: Cargo ship. MMSI: 305812000.

Date/timePositionNaut miles runAvg speedWind from/ knotsBaromVisibWave heightAir tempDewpointWater temp
2017-Sep-26 05:31N 57°34' E 010°43'1 8.0
2017-Sep-26 05:27N 57°35' E 010°43'7 8.3
2017-Sep-26 04:39N 57°41' E 010°44'5 8.5
2017-Sep-26 04:04N 57°46' E 010°45'1 7.4
2017-Sep-26 03:53N 57°47' E 010°43'101 7.4
2017-Sep-25 14:22N 57°42' E 007°35'2 6.7
2017-Sep-25 14:00N 57°42' E 007°31'3 6.7
2017-Sep-25 13:30N 57°42' E 007°25'4 7.1
2017-Sep-25 13:00N 57°43' E 007°18'3 7.1
2017-Sep-25 12:31N 57°43' E 007°11'4 7.3
2017-Sep-25 12:00N 57°43' E 007°05'162 6.9
2017-Sep-24 12:29N 60°05' E 004°31'5 9.9
2017-Sep-24 12:00N 60°06' E 004°41'5 9.8
2017-Sep-24 11:30N 60°07' E 004°50'5 9.6
2017-Sep-24 11:00N 60°08' E 004°60'5 9.4
2017-Sep-24 10:30N 60°10' E 005°08'4 8.7
2017-Sep-24 10:00N 60°15' E 005°09'5 9.3
2017-Sep-24 09:31N 60°19' E 005°09'4 7.2
2017-Sep-24 09:00N 60°23' E 005°10'4 7.7
2017-Sep-24 08:31N 60°25' E 005°16'510.0
2017-Sep-24 08:00N 60°30' E 005°15'5 9.9
2017-Sep-24 07:30N 60°34' E 005°22'510.2
2017-Sep-24 07:00N 60°37' E 005°30'4 8.3
2017-Sep-24 06:30N 60°41' E 005°34'1 1.8
2017-Sep-24 05:47N 60°42' E 005°33'0 0.0
2017-Sep-24 05:23N 60°42' E 005°33'0 0.0
2017-Sep-24 04:59N 60°42' E 005°33'0 0.0
2017-Sep-24 04:29N 60°42' E 005°33'0 0.0
2017-Sep-24 02:35N 60°42' E 005°33'0 0.0
2017-Sep-24 02:17N 60°42' E 005°33'0 0.1
2017-Sep-24 01:59N 60°42' E 005°33'0 0.0
2017-Sep-24 01:29N 60°42' E 005°33'0 0.0
2017-Sep-24 00:56N 60°42' E 005°33'0 0.0
2017-Sep-24 00:26N 60°42' E 005°33'0 0.0
2017-Sep-23 23:56N 60°42' E 005°33'0 0.0
2017-Sep-23 23:29N 60°42' E 005°33'0 0.0
2017-Sep-23 22:59N 60°42' E 005°33'0 0.0
2017-Sep-23 22:11N 60°42' E 005°33'0 0.1
2017-Sep-23 21:56N 60°42' E 005°33'0 0.0
2017-Sep-23 21:14N 60°42' E 005°33'0 0.0
2017-Sep-23 20:59N 60°42' E 005°33'0 0.0
2017-Sep-23 20:26N 60°42' E 005°33'0 0.0
2017-Sep-23 19:56N 60°42' E 005°33'36 0.9
2017-Sep-22 02:01N 61°07' E 006°29'4 8.4
2017-Sep-22 01:30N 61°06' E 006°20'4 8.6
2017-Sep-22 01:00N 61°07' E 006°11'4 8.2
2017-Sep-22 00:30N 61°08' E 006°03'4 8.0
2017-Sep-22 00:00N 61°08' E 005°54'4 8.0
2017-Sep-21 23:31N 61°08' E 005°46'4 8.1
2017-Sep-21 23:00N 61°06' E 005°38'4 8.2
2017-Sep-21 22:30N 61°05' E 005°30'4 7.9
2017-Sep-21 22:00N 61°04' E 005°22'4 9.2
2017-Sep-21 21:31N 61°05' E 005°14'5 8.8
2017-Sep-21 21:00N 61°05' E 005°04'510.1
2017-Sep-21 20:30N 61°02' E 004°55'510.8
2017-Sep-21 20:00N 60°59' E 004°47'510.2
2017-Sep-21 19:30N 60°54' E 004°46'4 8.3
2017-Sep-21 19:00N 60°51' E 004°52'5 9.3
2017-Sep-21 18:30N 60°49' E 005°01'0 0.4
2017-Sep-21 18:00N 60°49' E 005°01'0 0.0
2017-Sep-21 17:31N 60°49' E 005°01'0 0.0
2017-Sep-21 17:00N 60°49' E 005°01'0 0.0
2017-Sep-21 16:30N 60°49' E 005°01'0 0.0
2017-Sep-21 16:01N 60°49' E 005°01'0 0.0
2017-Sep-21 15:30N 60°49' E 005°01'0 0.0
2017-Sep-21 15:00N 60°49' E 005°01'0 0.0
2017-Sep-21 14:30N 60°49' E 005°01'0 0.0
2017-Sep-21 14:00N 60°49' E 005°01'0 0.0
2017-Sep-21 13:30N 60°49' E 005°01'0 0.0
2017-Sep-21 13:00N 60°49' E 005°01'0 0.0
2017-Sep-21 12:30N 60°49' E 005°01'0 0.0
2017-Sep-21 12:00N 60°49' E 005°01'0 0.0
2017-Sep-21 11:30N 60°49' E 005°01'0 0.0
2017-Sep-21 11:01N 60°49' E 005°01'0 0.0
2017-Sep-21 10:30N 60°49' E 005°01'0 0.0
2017-Sep-21 10:00N 60°49' E 005°01'0 0.0
2017-Sep-21 09:30N 60°49' E 005°01'0 0.0
2017-Sep-21 09:00N 60°49' E 005°01'0 0.0
2017-Sep-21 08:30N 60°49' E 005°01'0 0.0
2017-Sep-21 08:01N 60°49' E 005°01'0 0.0
2017-Sep-21 07:30N 60°49' E 005°01'0 0.0
2017-Sep-21 07:00N 60°49' E 005°01'0 0.0
2017-Sep-21 06:30N 60°49' E 005°01'0 0.0
2017-Sep-21 06:00N 60°49' E 005°01'0 0.0
2017-Sep-21 05:30N 60°49' E 005°01'0 0.0
2017-Sep-21 05:00N 60°49' E 005°01'0 0.0
2017-Sep-21 04:31N 60°49' E 005°01'0 0.0
2017-Sep-21 04:01N 60°49' E 005°01'0 0.0
2017-Sep-21 03:30N 60°49' E 005°01'0 0.0
2017-Sep-21 03:00N 60°49' E 005°01'0 0.0
2017-Sep-21 02:29N 60°49' E 005°01'0 0.0
2017-Sep-21 02:00N 60°49' E 005°01'0 0.0
2017-Sep-21 01:30N 60°49' E 005°01'1 1.5
2017-Sep-21 01:00N 60°49' E 004°60'4 8.9
2017-Sep-21 00:31N 60°51' E 004°52'4 8.4
2017-Sep-21 00:00N 60°48' E 004°45'4 7.8
2017-Sep-20 23:30N 60°44' E 004°42'5 9.7
2017-Sep-20 23:00N 60°45' E 004°33'4 7.3
2017-Sep-20 22:30N 60°45' E 004°25'269 8.5
2017-Sep-19 14:50N 57°29' W 001°36'411.0
2017-Sep-19 14:28N 57°28' W 001°43'3 6.0
2017-Sep-19 14:00N 57°30' W 001°47'0 0.0
2017-Sep-19 13:31N 57°30' W 001°47'0 0.0
2017-Sep-19 13:00N 57°30' W 001°47'0 0.0
2017-Sep-19 12:30N 57°30' W 001°47'0 0.0
2017-Sep-19 12:01N 57°30' W 001°47'0 0.0
2017-Sep-19 11:31N 57°30' W 001°47'0 0.0
2017-Sep-19 11:01N 57°30' W 001°47'0 0.0
2017-Sep-19 10:31N 57°30' W 001°47'0 0.0
2017-Sep-19 10:01N 57°30' W 001°47'0 0.0
2017-Sep-19 09:31N 57°30' W 001°47'0 0.0
2017-Sep-19 09:01N 57°30' W 001°47'0 0.0
2017-Sep-19 08:30N 57°30' W 001°47'0 0.0
2017-Sep-19 08:01N 57°30' W 001°47'0 0.0
2017-Sep-19 07:31N 57°30' W 001°47'0 0.0
2017-Sep-19 07:00N 57°30' W 001°47'0 0.0
2017-Sep-19 06:30N 57°30' W 001°47'0 0.0
2017-Sep-19 06:01N 57°30' W 001°47'0 0.0
2017-Sep-19 05:30N 57°30' W 001°47'0 0.0
2017-Sep-19 05:00N 57°30' W 001°47'0 0.0
2017-Sep-19 04:31N 57°30' W 001°47'0 0.0
2017-Sep-19 04:00N 57°30' W 001°47'0 0.0
2017-Sep-19 03:31N 57°30' W 001°47'0 0.0
2017-Sep-19 03:01N 57°30' W 001°47'0 0.0
2017-Sep-19 02:30N 57°30' W 001°47'0 0.0
2017-Sep-19 02:01N 57°30' W 001°47'0 0.0
2017-Sep-19 01:30N 57°30' W 001°47'0 0.0
2017-Sep-19 01:00N 57°30' W 001°47'0 0.0
2017-Sep-19 00:31N 57°30' W 001°47'0 0.0
2017-Sep-19 00:00N 57°30' W 001°47'0 0.0
2017-Sep-18 23:30N 57°30' W 001°47'0 0.0
2017-Sep-18 23:01N 57°30' W 001°47'0 0.0
2017-Sep-18 22:30N 57°30' W 001°47'0 0.0
2017-Sep-18 22:01N 57°30' W 001°47'0 0.0
2017-Sep-18 21:30N 57°30' W 001°47'0 0.0
2017-Sep-18 21:01N 57°30' W 001°47'0 0.0
2017-Sep-18 20:30N 57°30' W 001°47'0 0.0
2017-Sep-18 20:00N 57°30' W 001°47'0 0.0
2017-Sep-18 19:31N 57°30' W 001°47'0 0.0
2017-Sep-18 19:00N 57°30' W 001°47'0 0.0
2017-Sep-18 18:31N 57°30' W 001°47'0 0.0
2017-Sep-18 18:00N 57°30' W 001°47'0 0.0
2017-Sep-18 17:30N 57°30' W 001°47'0 0.0
2017-Sep-18 17:00N 57°30' W 001°47'0 0.0
2017-Sep-18 16:30N 57°30' W 001°47'0 0.0
2017-Sep-18 16:01N 57°30' W 001°47'0 0.0
2017-Sep-18 15:30N 57°30' W 001°47'0 0.0
2017-Sep-18 15:00N 57°30' W 001°47'0 0.0
2017-Sep-18 14:31N 57°30' W 001°47'0 0.0
2017-Sep-18 14:00N 57°30' W 001°47'0 0.0
2017-Sep-18 13:31N 57°30' W 001°47'0 0.0
2017-Sep-18 13:00N 57°30' W 001°47'0 0.0
2017-Sep-18 12:31N 57°30' W 001°47'0 0.0
2017-Sep-18 12:00N 57°30' W 001°47'0 0.0
2017-Sep-18 11:31N 57°30' W 001°47'0 0.0
2017-Sep-18 11:01N 57°30' W 001°47'0 0.0
2017-Sep-18 10:30N 57°30' W 001°47'0 0.0
2017-Sep-18 10:00N 57°30' W 001°47'0 0.0
2017-Sep-18 09:31N 57°30' W 001°47'0 0.0
2017-Sep-18 09:01N 57°30' W 001°47'0 0.0
2017-Sep-18 08:30N 57°30' W 001°47'0 0.0
2017-Sep-18 08:01N 57°30' W 001°47'0 0.0
2017-Sep-18 07:30N 57°30' W 001°47'0 0.0
2017-Sep-18 07:00N 57°30' W 001°47'0 0.0
2017-Sep-18 06:30N 57°30' W 001°47'0 0.0
2017-Sep-18 06:00N 57°30' W 001°47'0 0.0
2017-Sep-18 05:31N 57°30' W 001°47'0 0.1
2017-Sep-18 05:00N 57°30' W 001°47'2 4.5
2017-Sep-18 04:30N 57°29' W 001°44'16 9.0
2017-Sep-18 02:43N 57°13' W 001°47'2 9.3
2017-Sep-18 02:28N 57°10' W 001°48'6 8.7
2017-Sep-18 01:48N 57°04' W 001°49'2 8.0
2017-Sep-18 01:30N 57°02' W 001°50'155 7.2
2017-Sep-17 03:52N 54°37' W 000°09'3 7.0
2017-Sep-17 03:30N 54°35' W 000°07'3 7.0
2017-Sep-17 03:01N 54°32' W 000°03'3 6.6
2017-Sep-17 02:31N 54°30' W 000°00'3 6.4
2017-Sep-17 02:01N 54°27' E 000°03'3 6.4
2017-Sep-17 01:31N 54°24' E 000°06'3 6.2
2017-Sep-17 01:00N 54°22' E 000°09'3 6.3
2017-Sep-17 00:30N 54°19' E 000°12'4 6.3
2017-Sep-16 23:49N 54°15' E 000°16'2 6.4
2017-Sep-16 23:30N 54°13' E 000°17'3 6.8
2017-Sep-16 23:00N 54°10' E 000°19'69 7.3
2017-Sep-16 13:34N 53°10' E 001°15'1 8.7
2017-Sep-16 13:25N 53°09' E 001°17'4 9.2
2017-Sep-16 13:00N 53°06' E 001°21'710.1
2017-Sep-16 12:21N 53°01' E 001°29'410.8
2017-Sep-16 12:00N 52°59' E 001°33'611.3
2017-Sep-16 11:30N 52°55' E 001°39'711.8
2017-Sep-16 10:57N 52°50' E 001°47'  

Dump ship's entire track history